sensor_id;sensor_type;location;lat;lon;timestamp;P1;durP1;ratioP1;P2;durP2;ratioP2
41343;SDS011;27089;50.022;7.604;2023-03-11T00:01:41;2.87;;;1.00;;
41343;SDS011;27089;50.022;7.604;2023-03-11T00:04:09;3.70;;;0.80;;
41343;SDS011;27089;50.022;7.604;2023-03-11T00:06:36;3.80;;;1.00;;
41343;SDS011;27089;50.022;7.604;2023-03-11T00:09:03;2.47;;;0.80;;
41343;SDS011;27089;50.022;7.604;2023-03-11T00:11:30;6.20;;;0.87;;
41343;SDS011;27089;50.022;7.604;2023-03-11T00:13:57;4.00;;;0.60;;
41343;SDS011;27089;50.022;7.604;2023-03-11T00:16:24;4.73;;;0.90;;
41343;SDS011;27089;50.022;7.604;2023-03-11T00:18:51;4.33;;;0.90;;
41343;SDS011;27089;50.022;7.604;2023-03-11T00:21:20;4.13;;;1.00;;
41343;SDS011;27089;50.022;7.604;2023-03-11T00:23:47;3.90;;;0.70;;
41343;SDS011;27089;50.022;7.604;2023-03-11T00:26:14;3.83;;;1.10;;
41343;SDS011;27089;50.022;7.604;2023-03-11T00:28:41;2.73;;;0.90;;
41343;SDS011;27089;50.022;7.604;2023-03-11T00:31:09;3.27;;;1.00;;
41343;SDS011;27089;50.022;7.604;2023-03-11T00:33:38;2.63;;;0.90;;
41343;SDS011;27089;50.022;7.604;2023-03-11T00:36:05;2.53;;;1.00;;
41343;SDS011;27089;50.022;7.604;2023-03-11T00:38:34;3.53;;;0.97;;
41343;SDS011;27089;50.022;7.604;2023-03-11T00:41:01;2.93;;;1.10;;
41343;SDS011;27089;50.022;7.604;2023-03-11T00:43:28;2.73;;;0.97;;
41343;SDS011;27089;50.022;7.604;2023-03-11T00:45:55;3.00;;;1.13;;
41343;SDS011;27089;50.022;7.604;2023-03-11T00:48:22;2.87;;;1.07;;
41343;SDS011;27089;50.022;7.604;2023-03-11T00:50:48;3.70;;;0.90;;
41343;SDS011;27089;50.022;7.604;2023-03-11T00:53:15;5.03;;;0.87;;
41343;SDS011;27089;50.022;7.604;2023-03-11T00:55:44;4.27;;;1.03;;
41343;SDS011;27089;50.022;7.604;2023-03-11T00:58:11;1.83;;;0.87;;
41343;SDS011;27089;50.022;7.604;2023-03-11T01:00:38;4.23;;;1.10;;
41343;SDS011;27089;50.022;7.604;2023-03-11T01:03:05;6.13;;;1.20;;
41343;SDS011;27089;50.022;7.604;2023-03-11T01:05:32;2.27;;;0.90;;
41343;SDS011;27089;50.022;7.604;2023-03-11T01:08:00;4.03;;;0.80;;
41343;SDS011;27089;50.022;7.604;2023-03-11T01:10:28;4.03;;;0.93;;
41343;SDS011;27089;50.022;7.604;2023-03-11T01:12:57;4.47;;;1.07;;
41343;SDS011;27089;50.022;7.604;2023-03-11T01:15:25;2.77;;;0.80;;
41343;SDS011;27089;50.022;7.604;2023-03-11T01:17:54;3.80;;;1.20;;
41343;SDS011;27089;50.022;7.604;2023-03-11T01:20:21;5.23;;;1.03;;
41343;SDS011;27089;50.022;7.604;2023-03-11T01:22:48;2.53;;;0.90;;
41343;SDS011;27089;50.022;7.604;2023-03-11T01:25:16;5.07;;;1.23;;
41343;SDS011;27089;50.022;7.604;2023-03-11T01:27:44;9.40;;;1.50;;
41343;SDS011;27089;50.022;7.604;2023-03-11T01:30:15;4.57;;;1.30;;
41343;SDS011;27089;50.022;7.604;2023-03-11T01:32:43;6.17;;;1.17;;
41343;SDS011;27089;50.022;7.604;2023-03-11T01:35:11;3.67;;;1.07;;
41343;SDS011;27089;50.022;7.604;2023-03-11T01:37:38;3.47;;;1.13;;
41343;SDS011;27089;50.022;7.604;2023-03-11T01:40:06;3.93;;;1.27;;
41343;SDS011;27089;50.022;7.604;2023-03-11T01:42:39;3.47;;;1.40;;
41343;SDS011;27089;50.022;7.604;2023-03-11T01:45:14;3.30;;;1.23;;
41343;SDS011;27089;50.022;7.604;2023-03-11T01:48:07;3.57;;;1.07;;
41343;SDS011;27089;50.022;7.604;2023-03-11T01:50:35;5.13;;;1.67;;
41343;SDS011;27089;50.022;7.604;2023-03-11T01:53:06;4.03;;;1.27;;
41343;SDS011;27089;50.022;7.604;2023-03-11T01:55:34;7.53;;;1.27;;
41343;SDS011;27089;50.022;7.604;2023-03-11T01:58:03;5.87;;;1.33;;
41343;SDS011;27089;50.022;7.604;2023-03-11T02:00:34;3.93;;;1.30;;
41343;SDS011;27089;50.022;7.604;2023-03-11T02:03:05;2.13;;;1.13;;
41343;SDS011;27089;50.022;7.604;2023-03-11T02:05:36;5.70;;;1.50;;
41343;SDS011;27089;50.022;7.604;2023-03-11T02:08:05;3.73;;;1.13;;
41343;SDS011;27089;50.022;7.604;2023-03-11T02:10:32;3.20;;;0.83;;
41343;SDS011;27089;50.022;7.604;2023-03-11T02:12:59;8.97;;;1.50;;
41343;SDS011;27089;50.022;7.604;2023-03-11T02:15:28;7.70;;;1.03;;
41343;SDS011;27089;50.022;7.604;2023-03-11T02:17:55;4.07;;;1.10;;
41343;SDS011;27089;50.022;7.604;2023-03-11T02:20:29;6.40;;;1.43;;
41343;SDS011;27089;50.022;7.604;2023-03-11T02:23:04;1.80;;;1.10;;
41343;SDS011;27089;50.022;7.604;2023-03-11T02:25:33;7.17;;;1.50;;
41343;SDS011;27089;50.022;7.604;2023-03-11T02:28:06;3.00;;;1.00;;
41343;SDS011;27089;50.022;7.604;2023-03-11T02:30:35;5.50;;;1.57;;
41343;SDS011;27089;50.022;7.604;2023-03-11T02:33:04;11.00;;;1.50;;
41343;SDS011;27089;50.022;7.604;2023-03-11T02:35:32;3.57;;;1.10;;
41343;SDS011;27089;50.022;7.604;2023-03-11T02:37:58;3.27;;;1.30;;
41343;SDS011;27089;50.022;7.604;2023-03-11T02:43:20;3.97;;;1.00;;
41343;SDS011;27089;50.022;7.604;2023-03-11T02:45:50;5.37;;;1.10;;
41343;SDS011;27089;50.022;7.604;2023-03-11T02:48:17;6.10;;;1.30;;
41343;SDS011;27089;50.022;7.604;2023-03-11T02:50:46;3.83;;;1.10;;
41343;SDS011;27089;50.022;7.604;2023-03-11T02:53:13;3.90;;;1.23;;
41343;SDS011;27089;50.022;7.604;2023-03-11T02:55:41;5.60;;;1.33;;
41343;SDS011;27089;50.022;7.604;2023-03-11T02:58:07;5.30;;;1.20;;
41343;SDS011;27089;50.022;7.604;2023-03-11T03:00:36;4.47;;;1.20;;
41343;SDS011;27089;50.022;7.604;2023-03-11T03:03:03;4.77;;;1.20;;
41343;SDS011;27089;50.022;7.604;2023-03-11T03:05:30;5.00;;;1.37;;
41343;SDS011;27089;50.022;7.604;2023-03-11T03:07:57;6.30;;;1.63;;
41343;SDS011;27089;50.022;7.604;2023-03-11T03:10:25;7.90;;;1.43;;
41343;SDS011;27089;50.022;7.604;2023-03-11T03:12:52;5.20;;;1.20;;
41343;SDS011;27089;50.022;7.604;2023-03-11T03:15:19;5.63;;;1.63;;
41343;SDS011;27089;50.022;7.604;2023-03-11T03:17:47;5.23;;;1.50;;
41343;SDS011;27089;50.022;7.604;2023-03-11T03:20:15;4.97;;;1.30;;
41343;SDS011;27089;50.022;7.604;2023-03-11T03:22:43;6.13;;;1.30;;
41343;SDS011;27089;50.022;7.604;2023-03-11T03:25:10;5.27;;;1.37;;
41343;SDS011;27089;50.022;7.604;2023-03-11T03:27:37;3.63;;;1.47;;
41343;SDS011;27089;50.022;7.604;2023-03-11T03:30:05;8.30;;;1.90;;
41343;SDS011;27089;50.022;7.604;2023-03-11T03:32:32;4.23;;;1.63;;
41343;SDS011;27089;50.022;7.604;2023-03-11T03:35:01;5.97;;;1.50;;
41343;SDS011;27089;50.022;7.604;2023-03-11T03:37:30;11.37;;;2.13;;
41343;SDS011;27089;50.022;7.604;2023-03-11T03:39:58;5.43;;;1.57;;
41343;SDS011;27089;50.022;7.604;2023-03-11T03:42:26;6.50;;;1.47;;
41343;SDS011;27089;50.022;7.604;2023-03-11T03:44:53;3.67;;;1.10;;
41343;SDS011;27089;50.022;7.604;2023-03-11T03:47:20;4.20;;;1.50;;
41343;SDS011;27089;50.022;7.604;2023-03-11T03:49:47;8.03;;;1.63;;
41343;SDS011;27089;50.022;7.604;2023-03-11T03:52:15;2.97;;;1.20;;
41343;SDS011;27089;50.022;7.604;2023-03-11T03:54:42;6.03;;;1.50;;
41343;SDS011;27089;50.022;7.604;2023-03-11T03:57:09;5.50;;;1.50;;
41343;SDS011;27089;50.022;7.604;2023-03-11T03:59:36;4.97;;;1.27;;
41343;SDS011;27089;50.022;7.604;2023-03-11T04:02:04;4.83;;;1.00;;
41343;SDS011;27089;50.022;7.604;2023-03-11T04:04:31;6.70;;;1.50;;
41343;SDS011;27089;50.022;7.604;2023-03-11T04:06:58;4.47;;;1.20;;
41343;SDS011;27089;50.022;7.604;2023-03-11T04:09:28;5.27;;;1.53;;
41343;SDS011;27089;50.022;7.604;2023-03-11T04:11:55;5.07;;;1.60;;
41343;SDS011;27089;50.022;7.604;2023-03-11T04:14:23;5.03;;;1.10;;
41343;SDS011;27089;50.022;7.604;2023-03-11T04:16:51;7.17;;;2.10;;
41343;SDS011;27089;50.022;7.604;2023-03-11T04:19:17;4.20;;;1.70;;
41343;SDS011;27089;50.022;7.604;2023-03-11T04:21:44;8.00;;;1.37;;
41343;SDS011;27089;50.022;7.604;2023-03-11T04:24:11;3.90;;;1.37;;
41343;SDS011;27089;50.022;7.604;2023-03-11T04:26:40;7.03;;;1.70;;
41343;SDS011;27089;50.022;7.604;2023-03-11T04:29:07;6.10;;;2.10;;
41343;SDS011;27089;50.022;7.604;2023-03-11T04:31:33;7.73;;;3.47;;
41343;SDS011;27089;50.022;7.604;2023-03-11T04:34:00;15.20;;;3.70;;
41343;SDS011;27089;50.022;7.604;2023-03-11T04:36:27;11.80;;;3.37;;
41343;SDS011;27089;50.022;7.604;2023-03-11T04:38:54;8.53;;;2.27;;
41343;SDS011;27089;50.022;7.604;2023-03-11T04:41:22;7.53;;;1.40;;
41343;SDS011;27089;50.022;7.604;2023-03-11T04:43:50;6.33;;;2.00;;
41343;SDS011;27089;50.022;7.604;2023-03-11T04:46:17;9.70;;;3.57;;
41343;SDS011;27089;50.022;7.604;2023-03-11T04:48:44;22.27;;;9.87;;
41343;SDS011;27089;50.022;7.604;2023-03-11T04:51:11;24.50;;;11.33;;
41343;SDS011;27089;50.022;7.604;2023-03-11T04:53:38;19.80;;;9.63;;
41343;SDS011;27089;50.022;7.604;2023-03-11T04:56:06;19.00;;;8.53;;
41343;SDS011;27089;50.022;7.604;2023-03-11T04:58:33;12.50;;;5.17;;
41343;SDS011;27089;50.022;7.604;2023-03-11T05:01:01;14.17;;;6.67;;
41343;SDS011;27089;50.022;7.604;2023-03-11T05:03:28;11.33;;;5.13;;
41343;SDS011;27089;50.022;7.604;2023-03-11T05:05:55;18.27;;;9.10;;
41343;SDS011;27089;50.022;7.604;2023-03-11T05:08:24;21.93;;;9.10;;
41343;SDS011;27089;50.022;7.604;2023-03-11T05:10:52;19.27;;;8.27;;
41343;SDS011;27089;50.022;7.604;2023-03-11T05:13:19;12.20;;;5.07;;
41343;SDS011;27089;50.022;7.604;2023-03-11T05:15:46;9.17;;;3.77;;
41343;SDS011;27089;50.022;7.604;2023-03-11T05:18:17;4.97;;;2.17;;
41343;SDS011;27089;50.022;7.604;2023-03-11T05:20:44;8.63;;;2.00;;
41343;SDS011;27089;50.022;7.604;2023-03-11T05:23:12;6.80;;;1.63;;
41343;SDS011;27089;50.022;7.604;2023-03-11T05:25:39;4.83;;;2.00;;
41343;SDS011;27089;50.022;7.604;2023-03-11T05:28:06;5.73;;;1.67;;
41343;SDS011;27089;50.022;7.604;2023-03-11T05:30:33;7.53;;;2.47;;
41343;SDS011;27089;50.022;7.604;2023-03-11T05:33:00;6.70;;;2.30;;
41343;SDS011;27089;50.022;7.604;2023-03-11T05:35:28;8.90;;;2.83;;
41343;SDS011;27089;50.022;7.604;2023-03-11T05:37:55;8.73;;;2.03;;
41343;SDS011;27089;50.022;7.604;2023-03-11T05:40:22;7.27;;;2.10;;
41343;SDS011;27089;50.022;7.604;2023-03-11T05:42:49;8.90;;;2.23;;
41343;SDS011;27089;50.022;7.604;2023-03-11T05:45:17;14.20;;;2.40;;
41343;SDS011;27089;50.022;7.604;2023-03-11T05:47:44;7.23;;;3.33;;
41343;SDS011;27089;50.022;7.604;2023-03-11T05:50:11;8.20;;;1.80;;
41343;SDS011;27089;50.022;7.604;2023-03-11T05:52:40;6.03;;;2.00;;
41343;SDS011;27089;50.022;7.604;2023-03-11T05:55:08;10.40;;;1.93;;
41343;SDS011;27089;50.022;7.604;2023-03-11T05:57:36;6.77;;;1.90;;
41343;SDS011;27089;50.022;7.604;2023-03-11T06:00:03;4.50;;;1.40;;
41343;SDS011;27089;50.022;7.604;2023-03-11T06:02:36;7.67;;;4.30;;
41343;SDS011;27089;50.022;7.604;2023-03-11T06:05:03;18.83;;;8.63;;
41343;SDS011;27089;50.022;7.604;2023-03-11T06:07:32;17.07;;;8.13;;
41343;SDS011;27089;50.022;7.604;2023-03-11T06:10:01;12.80;;;5.60;;
41343;SDS011;27089;50.022;7.604;2023-03-11T06:12:28;9.23;;;2.83;;
41343;SDS011;27089;50.022;7.604;2023-03-11T06:14:55;3.90;;;1.97;;
41343;SDS011;27089;50.022;7.604;2023-03-11T06:17:22;6.63;;;1.83;;
41343;SDS011;27089;50.022;7.604;2023-03-11T06:19:49;3.87;;;1.80;;
41343;SDS011;27089;50.022;7.604;2023-03-11T06:22:16;8.20;;;2.33;;
41343;SDS011;27089;50.022;7.604;2023-03-11T06:24:43;5.87;;;2.03;;
41343;SDS011;27089;50.022;7.604;2023-03-11T06:27:11;5.43;;;2.60;;
41343;SDS011;27089;50.022;7.604;2023-03-11T06:29:38;11.90;;;5.77;;
41343;SDS011;27089;50.022;7.604;2023-03-11T06:32:05;7.83;;;3.00;;
41343;SDS011;27089;50.022;7.604;2023-03-11T06:34:32;5.93;;;2.10;;
41343;SDS011;27089;50.022;7.604;2023-03-11T06:36:59;5.93;;;2.03;;
41343;SDS011;27089;50.022;7.604;2023-03-11T06:39:26;4.80;;;1.80;;
41343;SDS011;27089;50.022;7.604;2023-03-11T06:41:53;5.13;;;2.20;;
41343;SDS011;27089;50.022;7.604;2023-03-11T06:44:22;4.97;;;2.23;;
41343;SDS011;27089;50.022;7.604;2023-03-11T06:46:49;6.80;;;3.20;;
41343;SDS011;27089;50.022;7.604;2023-03-11T06:49:16;6.73;;;2.97;;
41343;SDS011;27089;50.022;7.604;2023-03-11T06:51:43;7.83;;;3.33;;
41343;SDS011;27089;50.022;7.604;2023-03-11T06:54:10;7.90;;;3.47;;
41343;SDS011;27089;50.022;7.604;2023-03-11T06:56:37;5.60;;;3.30;;
41343;SDS011;27089;50.022;7.604;2023-03-11T06:59:04;9.03;;;5.40;;
41343;SDS011;27089;50.022;7.604;2023-03-11T07:01:32;11.07;;;5.10;;
41343;SDS011;27089;50.022;7.604;2023-03-11T07:03:59;5.97;;;3.07;;
41343;SDS011;27089;50.022;7.604;2023-03-11T07:06:27;13.13;;;7.23;;
41343;SDS011;27089;50.022;7.604;2023-03-11T07:08:54;10.53;;;4.67;;
41343;SDS011;27089;50.022;7.604;2023-03-11T07:11:21;4.33;;;2.50;;
41343;SDS011;27089;50.022;7.604;2023-03-11T07:13:49;5.70;;;1.90;;
41343;SDS011;27089;50.022;7.604;2023-03-11T07:16:19;3.90;;;2.40;;
41343;SDS011;27089;50.022;7.604;2023-03-11T07:18:49;6.97;;;2.20;;
41343;SDS011;27089;50.022;7.604;2023-03-11T07:21:18;9.40;;;2.43;;
41343;SDS011;27089;50.022;7.604;2023-03-11T07:23:47;6.10;;;2.60;;
41343;SDS011;27089;50.022;7.604;2023-03-11T07:26:18;4.37;;;2.33;;
41343;SDS011;27089;50.022;7.604;2023-03-11T07:28:45;8.50;;;2.60;;
41343;SDS011;27089;50.022;7.604;2023-03-11T07:31:13;6.73;;;2.20;;
41343;SDS011;27089;50.022;7.604;2023-03-11T07:33:43;3.87;;;1.70;;
41343;SDS011;27089;50.022;7.604;2023-03-11T07:36:12;2.67;;;1.40;;
41343;SDS011;27089;50.022;7.604;2023-03-11T07:38:40;3.93;;;1.27;;
41343;SDS011;27089;50.022;7.604;2023-03-11T07:41:08;6.07;;;1.90;;
41343;SDS011;27089;50.022;7.604;2023-03-11T07:43:36;3.77;;;1.70;;
41343;SDS011;27089;50.022;7.604;2023-03-11T07:46:04;10.63;;;1.70;;
41343;SDS011;27089;50.022;7.604;2023-03-11T07:48:33;3.87;;;1.33;;
41343;SDS011;27089;50.022;7.604;2023-03-11T07:51:02;7.00;;;1.60;;
41343;SDS011;27089;50.022;7.604;2023-03-11T07:53:32;3.40;;;1.30;;
41343;SDS011;27089;50.022;7.604;2023-03-11T07:55:59;3.77;;;1.40;;
41343;SDS011;27089;50.022;7.604;2023-03-11T07:58:27;4.63;;;1.80;;
41343;SDS011;27089;50.022;7.604;2023-03-11T08:00:55;14.53;;;7.93;;
41343;SDS011;27089;50.022;7.604;2023-03-11T08:03:22;6.93;;;1.80;;
41343;SDS011;27089;50.022;7.604;2023-03-11T08:05:49;4.60;;;1.50;;
41343;SDS011;27089;50.022;7.604;2023-03-11T08:08:16;6.93;;;1.50;;
41343;SDS011;27089;50.022;7.604;2023-03-11T08:10:44;5.00;;;1.37;;
41343;SDS011;27089;50.022;7.604;2023-03-11T08:13:11;3.77;;;1.50;;
41343;SDS011;27089;50.022;7.604;2023-03-11T08:15:38;6.10;;;1.40;;
41343;SDS011;27089;50.022;7.604;2023-03-11T08:18:05;4.57;;;1.50;;
41343;SDS011;27089;50.022;7.604;2023-03-11T08:20:32;4.43;;;1.50;;
41343;SDS011;27089;50.022;7.604;2023-03-11T08:23:00;5.77;;;2.57;;
41343;SDS011;27089;50.022;7.604;2023-03-11T08:25:27;5.30;;;1.40;;
41343;SDS011;27089;50.022;7.604;2023-03-11T08:27:55;4.23;;;1.40;;
41343;SDS011;27089;50.022;7.604;2023-03-11T08:30:24;5.10;;;1.50;;
41343;SDS011;27089;50.022;7.604;2023-03-11T08:32:51;6.33;;;1.70;;
41343;SDS011;27089;50.022;7.604;2023-03-11T08:35:18;6.13;;;2.37;;
41343;SDS011;27089;50.022;7.604;2023-03-11T08:37:45;3.40;;;1.70;;
41343;SDS011;27089;50.022;7.604;2023-03-11T08:40:12;6.07;;;1.73;;
41343;SDS011;27089;50.022;7.604;2023-03-11T08:42:39;5.03;;;2.10;;
41343;SDS011;27089;50.022;7.604;2023-03-11T08:45:08;4.97;;;1.40;;
41343;SDS011;27089;50.022;7.604;2023-03-11T08:47:36;5.93;;;2.80;;
41343;SDS011;27089;50.022;7.604;2023-03-11T08:50:04;3.97;;;1.83;;
41343;SDS011;27089;50.022;7.604;2023-03-11T08:52:33;4.67;;;1.10;;
41343;SDS011;27089;50.022;7.604;2023-03-11T08:55:00;4.80;;;1.17;;
41343;SDS011;27089;50.022;7.604;2023-03-11T08:57:28;2.23;;;0.93;;
41343;SDS011;27089;50.022;7.604;2023-03-11T08:59:56;3.53;;;1.30;;
41343;SDS011;27089;50.022;7.604;2023-03-11T09:02:25;6.23;;;1.60;;
41343;SDS011;27089;50.022;7.604;2023-03-11T09:04:52;6.67;;;3.43;;
41343;SDS011;27089;50.022;7.604;2023-03-11T09:07:19;3.40;;;1.63;;
41343;SDS011;27089;50.022;7.604;2023-03-11T09:09:46;7.40;;;1.40;;
41343;SDS011;27089;50.022;7.604;2023-03-11T09:12:14;6.47;;;2.10;;
41343;SDS011;27089;50.022;7.604;2023-03-11T09:14:41;2.83;;;1.40;;
41343;SDS011;27089;50.022;7.604;2023-03-11T09:17:09;5.40;;;1.47;;
41343;SDS011;27089;50.022;7.604;2023-03-11T09:19:39;2.53;;;0.90;;
41343;SDS011;27089;50.022;7.604;2023-03-11T09:22:06;3.10;;;1.20;;
41343;SDS011;27089;50.022;7.604;2023-03-11T09:24:34;3.00;;;0.90;;
41343;SDS011;27089;50.022;7.604;2023-03-11T09:27:01;2.80;;;0.90;;
41343;SDS011;27089;50.022;7.604;2023-03-11T09:29:28;5.13;;;1.30;;
41343;SDS011;27089;50.022;7.604;2023-03-11T09:31:55;3.27;;;0.90;;
41343;SDS011;27089;50.022;7.604;2023-03-11T09:34:22;3.83;;;1.30;;
41343;SDS011;27089;50.022;7.604;2023-03-11T09:36:51;3.13;;;1.00;;
41343;SDS011;27089;50.022;7.604;2023-03-11T09:39:18;5.83;;;1.10;;
41343;SDS011;27089;50.022;7.604;2023-03-11T09:41:46;3.43;;;0.80;;
41343;SDS011;27089;50.022;7.604;2023-03-11T09:44:19;1.73;;;0.73;;
41343;SDS011;27089;50.022;7.604;2023-03-11T09:50:02;4.60;;;1.40;;
41343;SDS011;27089;50.022;7.604;2023-03-11T09:52:39;3.03;;;1.05;;
41343;SDS011;27089;50.022;7.604;2023-03-11T09:55:18;4.50;;;0.90;;
41343;SDS011;27089;50.022;7.604;2023-03-11T09:57:55;1.97;;;0.93;;
41343;SDS011;27089;50.022;7.604;2023-03-11T10:00:25;5.73;;;0.90;;
41343;SDS011;27089;50.022;7.604;2023-03-11T10:02:52;2.40;;;0.80;;
41343;SDS011;27089;50.022;7.604;2023-03-11T10:05:21;2.83;;;1.00;;
41343;SDS011;27089;50.022;7.604;2023-03-11T10:07:52;2.87;;;0.87;;
41343;SDS011;27089;50.022;7.604;2023-03-11T10:10:25;2.27;;;1.00;;
41343;SDS011;27089;50.022;7.604;2023-03-11T10:12:58;2.13;;;1.00;;
41343;SDS011;27089;50.022;7.604;2023-03-11T10:15:34;3.07;;;1.10;;
41343;SDS011;27089;50.022;7.604;2023-03-11T10:18:19;3.83;;;1.27;;
41343;SDS011;27089;50.022;7.604;2023-03-11T10:20:58;2.27;;;0.80;;
41343;SDS011;27089;50.022;7.604;2023-03-11T10:23:31;12.07;;;2.23;;
41343;SDS011;27089;50.022;7.604;2023-03-11T10:26:13;4.43;;;2.03;;
41343;SDS011;27089;50.022;7.604;2023-03-11T10:28:45;3.57;;;1.60;;
41343;SDS011;27089;50.022;7.604;2023-03-11T10:31:18;4.03;;;0.90;;
41343;SDS011;27089;50.022;7.604;2023-03-11T10:33:49;3.00;;;1.80;;
41343;SDS011;27089;50.022;7.604;2023-03-11T10:36:21;2.93;;;1.27;;
41343;SDS011;27089;50.022;7.604;2023-03-11T10:38:52;4.57;;;1.40;;
41343;SDS011;27089;50.022;7.604;2023-03-11T10:41:22;7.37;;;3.10;;
41343;SDS011;27089;50.022;7.604;2023-03-11T10:43:55;3.30;;;0.87;;
41343;SDS011;27089;50.022;7.604;2023-03-11T10:46:28;3.20;;;1.03;;
41343;SDS011;27089;50.022;7.604;2023-03-11T10:48:55;3.23;;;1.23;;
41343;SDS011;27089;50.022;7.604;2023-03-11T10:51:22;3.97;;;1.80;;
41343;SDS011;27089;50.022;7.604;2023-03-11T10:53:52;3.13;;;1.30;;
41343;SDS011;27089;50.022;7.604;2023-03-11T10:56:23;2.90;;;0.80;;
41343;SDS011;27089;50.022;7.604;2023-03-11T10:58:51;3.93;;;1.43;;
41343;SDS011;27089;50.022;7.604;2023-03-11T11:01:19;2.97;;;1.40;;
41343;SDS011;27089;50.022;7.604;2023-03-11T11:03:47;3.17;;;1.17;;
41343;SDS011;27089;50.022;7.604;2023-03-11T11:06:20;5.37;;;1.50;;
41343;SDS011;27089;50.022;7.604;2023-03-11T11:09:04;2.57;;;1.33;;
41343;SDS011;27089;50.022;7.604;2023-03-11T11:11:41;8.33;;;7.53;;
41343;SDS011;27089;50.022;7.604;2023-03-11T11:14:08;4.43;;;1.10;;
41343;SDS011;27089;50.022;7.604;2023-03-11T11:16:35;4.23;;;1.13;;
41343;SDS011;27089;50.022;7.604;2023-03-11T11:19:03;4.73;;;1.10;;
41343;SDS011;27089;50.022;7.604;2023-03-11T11:21:35;3.70;;;1.00;;
41343;SDS011;27089;50.022;7.604;2023-03-11T11:24:08;6.23;;;1.20;;
41343;SDS011;27089;50.022;7.604;2023-03-11T11:26:40;2.33;;;1.30;;
41343;SDS011;27089;50.022;7.604;2023-03-11T11:29:12;3.40;;;1.10;;
41343;SDS011;27089;50.022;7.604;2023-03-11T11:31:40;4.50;;;0.70;;
41343;SDS011;27089;50.022;7.604;2023-03-11T11:34:23;2.83;;;1.07;;
41343;SDS011;27089;50.022;7.604;2023-03-11T11:36:55;4.30;;;1.23;;
41343;SDS011;27089;50.022;7.604;2023-03-11T11:39:25;13.27;;;5.77;;
41343;SDS011;27089;50.022;7.604;2023-03-11T11:41:56;4.90;;;2.03;;
41343;SDS011;27089;50.022;7.604;2023-03-11T11:44:27;3.33;;;1.43;;
41343;SDS011;27089;50.022;7.604;2023-03-11T11:46:59;4.70;;;1.17;;
41343;SDS011;27089;50.022;7.604;2023-03-11T11:49:35;1.97;;;1.30;;
41343;SDS011;27089;50.022;7.604;2023-03-11T11:52:07;2.93;;;1.40;;
41343;SDS011;27089;50.022;7.604;2023-03-11T11:54:41;4.13;;;1.33;;
41343;SDS011;27089;50.022;7.604;2023-03-11T11:57:12;5.30;;;1.60;;
41343;SDS011;27089;50.022;7.604;2023-03-11T11:59:40;4.73;;;1.37;;
41343;SDS011;27089;50.022;7.604;2023-03-11T12:02:12;3.80;;;1.30;;
41343;SDS011;27089;50.022;7.604;2023-03-11T12:04:51;1.47;;;1.00;;
41343;SDS011;27089;50.022;7.604;2023-03-11T12:07:23;3.03;;;0.80;;
41343;SDS011;27089;50.022;7.604;2023-03-11T12:10:12;3.23;;;1.00;;
41343;SDS011;27089;50.022;7.604;2023-03-11T12:12:47;5.37;;;1.37;;
41343;SDS011;27089;50.022;7.604;2023-03-11T12:15:33;4.33;;;1.60;;
41343;SDS011;27089;50.022;7.604;2023-03-11T12:18:07;9.23;;;3.20;;
41343;SDS011;27089;50.022;7.604;2023-03-11T12:20:38;4.97;;;3.20;;
41343;SDS011;27089;50.022;7.604;2023-03-11T12:23:16;4.87;;;1.50;;
41343;SDS011;27089;50.022;7.604;2023-03-11T12:25:51;2.47;;;0.90;;
41343;SDS011;27089;50.022;7.604;2023-03-11T12:28:28;3.67;;;1.30;;
41343;SDS011;27089;50.022;7.604;2023-03-11T12:31:03;5.10;;;1.73;;
41343;SDS011;27089;50.022;7.604;2023-03-11T12:33:35;5.17;;;0.90;;
41343;SDS011;27089;50.022;7.604;2023-03-11T12:36:05;5.40;;;1.87;;
41343;SDS011;27089;50.022;7.604;2023-03-11T12:38:44;4.03;;;1.77;;
41343;SDS011;27089;50.022;7.604;2023-03-11T12:41:26;3.60;;;1.20;;
41343;SDS011;27089;50.022;7.604;2023-03-11T12:43:59;2.50;;;1.20;;
41343;SDS011;27089;50.022;7.604;2023-03-11T12:49:27;4.43;;;1.43;;
41343;SDS011;27089;50.022;7.604;2023-03-11T12:52:03;3.83;;;1.80;;
41343;SDS011;27089;50.022;7.604;2023-03-11T12:54:41;1.97;;;0.80;;
41343;SDS011;27089;50.022;7.604;2023-03-11T12:57:13;2.50;;;0.90;;
41343;SDS011;27089;50.022;7.604;2023-03-11T13:00:10;5.33;;;0.83;;
41343;SDS011;27089;50.022;7.604;2023-03-11T13:03:09;4.20;;;1.30;;
41343;SDS011;27089;50.022;7.604;2023-03-11T13:05:59;2.87;;;1.00;;
41343;SDS011;27089;50.022;7.604;2023-03-11T13:08:42;6.37;;;1.53;;
41343;SDS011;27089;50.022;7.604;2023-03-11T13:14:12;4.80;;;1.10;;
41343;SDS011;27089;50.022;7.604;2023-03-11T13:16:51;4.00;;;1.40;;
41343;SDS011;27089;50.022;7.604;2023-03-11T13:25:24;2.53;;;1.00;;
41343;SDS011;27089;50.022;7.604;2023-03-11T13:27:54;2.53;;;1.10;;
41343;SDS011;27089;50.022;7.604;2023-03-11T13:30:31;2.17;;;0.97;;
41343;SDS011;27089;50.022;7.604;2023-03-11T13:33:09;2.67;;;1.40;;
41343;SDS011;27089;50.022;7.604;2023-03-11T13:35:50;4.50;;;2.27;;
41343;SDS011;27089;50.022;7.604;2023-03-11T13:41:26;5.57;;;2.90;;
41343;SDS011;27089;50.022;7.604;2023-03-11T13:43:56;2.67;;;1.00;;
41343;SDS011;27089;50.022;7.604;2023-03-11T13:46:32;6.43;;;1.60;;
41343;SDS011;27089;50.022;7.604;2023-03-11T13:49:04;3.93;;;1.87;;
41343;SDS011;27089;50.022;7.604;2023-03-11T13:51:36;6.73;;;3.00;;
41343;SDS011;27089;50.022;7.604;2023-03-11T13:54:09;2.13;;;1.03;;
41343;SDS011;27089;50.022;7.604;2023-03-11T13:56:54;3.17;;;1.10;;
41343;SDS011;27089;50.022;7.604;2023-03-11T13:59:24;2.47;;;1.07;;
41343;SDS011;27089;50.022;7.604;2023-03-11T14:01:55;5.27;;;1.00;;
41343;SDS011;27089;50.022;7.604;2023-03-11T14:04:24;3.27;;;1.07;;
41343;SDS011;27089;50.022;7.604;2023-03-11T14:06:53;4.27;;;1.00;;
41343;SDS011;27089;50.022;7.604;2023-03-11T14:09:20;7.37;;;1.30;;
41343;SDS011;27089;50.022;7.604;2023-03-11T14:11:49;4.77;;;1.30;;
41343;SDS011;27089;50.022;7.604;2023-03-11T14:14:26;3.27;;;1.47;;
41343;SDS011;27089;50.022;7.604;2023-03-11T14:17:03;4.07;;;2.20;;
41343;SDS011;27089;50.022;7.604;2023-03-11T14:19:36;4.63;;;2.87;;
41343;SDS011;27089;50.022;7.604;2023-03-11T14:22:06;2.60;;;1.20;;
41343;SDS011;27089;50.022;7.604;2023-03-11T14:24:33;6.27;;;4.23;;
41343;SDS011;27089;50.022;7.604;2023-03-11T14:27:01;4.57;;;1.10;;
41343;SDS011;27089;50.022;7.604;2023-03-11T14:29:32;2.80;;;1.00;;
41343;SDS011;27089;50.022;7.604;2023-03-11T14:32:15;1.90;;;0.90;;
41343;SDS011;27089;50.022;7.604;2023-03-11T14:34:48;6.70;;;2.90;;
41343;SDS011;27089;50.022;7.604;2023-03-11T14:37:22;2.87;;;1.70;;
41343;SDS011;27089;50.022;7.604;2023-03-11T14:39:52;2.63;;;1.20;;
41343;SDS011;27089;50.022;7.604;2023-03-11T14:42:20;4.50;;;1.70;;
41343;SDS011;27089;50.022;7.604;2023-03-11T14:44:51;4.27;;;1.40;;
41343;SDS011;27089;50.022;7.604;2023-03-11T14:47:25;2.60;;;1.13;;
41343;SDS011;27089;50.022;7.604;2023-03-11T14:50:00;4.07;;;1.17;;
41343;SDS011;27089;50.022;7.604;2023-03-11T14:52:31;5.43;;;1.40;;
41343;SDS011;27089;50.022;7.604;2023-03-11T14:55:02;3.80;;;1.00;;
41343;SDS011;27089;50.022;7.604;2023-03-11T14:57:34;6.53;;;1.63;;
41343;SDS011;27089;50.022;7.604;2023-03-11T15:00:05;3.10;;;1.13;;
41343;SDS011;27089;50.022;7.604;2023-03-11T15:02:43;5.13;;;1.30;;
41343;SDS011;27089;50.022;7.604;2023-03-11T15:05:22;3.97;;;0.93;;
41343;SDS011;27089;50.022;7.604;2023-03-11T15:07:55;3.40;;;1.00;;
41343;SDS011;27089;50.022;7.604;2023-03-11T15:10:25;7.83;;;1.93;;
41343;SDS011;27089;50.022;7.604;2023-03-11T15:13:02;5.10;;;1.70;;
41343;SDS011;27089;50.022;7.604;2023-03-11T15:15:30;1.90;;;1.00;;
41343;SDS011;27089;50.022;7.604;2023-03-11T15:17:59;4.93;;;1.17;;
41343;SDS011;27089;50.022;7.604;2023-03-11T15:20:27;3.00;;;1.03;;
41343;SDS011;27089;50.022;7.604;2023-03-11T15:22:58;4.13;;;1.20;;